createdAt,value
2023-02-05T00:04:54.392Z,80.30
2023-02-05T00:08:43.450Z,80.22
2023-02-05T00:12:32.435Z,80.24
2023-02-05T00:16:21.775Z,80.31
2023-02-05T00:20:10.835Z,80.35
2023-02-05T00:23:59.799Z,80.38
2023-02-05T00:27:48.929Z,80.44
2023-02-05T00:31:38.649Z,80.51
2023-02-05T00:35:27.864Z,80.51
2023-02-05T00:39:17.145Z,80.55
2023-02-05T00:43:06.267Z,80.61
2023-02-05T00:46:55.446Z,80.66
2023-02-05T00:50:44.505Z,80.72
2023-02-05T00:54:33.512Z,80.79
2023-02-05T00:58:22.559Z,80.82
2023-02-05T01:02:11.966Z,80.87
2023-02-05T01:06:04.579Z,80.91
2023-02-05T01:09:33.889Z,80.95
2023-02-05T01:13:24.046Z,80.99
2023-02-05T01:29:03.611Z,81.16
2023-02-05T01:32:52.825Z,81.26
2023-02-05T01:36:41.979Z,81.36
2023-02-05T01:40:30.975Z,81.42
2023-02-05T01:44:19.987Z,81.46
2023-02-05T01:48:09.034Z,81.55
2023-02-05T02:07:20.309Z,82.23
2023-02-05T02:11:10.144Z,82.22
2023-02-05T02:14:59.381Z,82.36
2023-02-05T02:18:48.330Z,82.56
2023-02-05T02:22:43.555Z,82.59
2023-02-05T02:26:33.831Z,82.75
2023-02-05T02:38:50.232Z,83.07
2023-02-05T02:42:57.290Z,83.14
2023-02-05T02:46:46.438Z,83.40
2023-02-05T02:58:43.188Z,83.75
2023-02-05T03:02:35.298Z,83.84
2023-02-05T03:06:24.486Z,83.76
2023-02-05T03:10:11.630Z,83.70
2023-02-05T03:14:00.875Z,83.78
2023-02-05T03:17:50.486Z,83.79
2023-02-05T03:21:39.587Z,83.99
2023-02-05T03:33:33.357Z,84.25
2023-02-05T03:37:37.369Z,84.32
2023-02-05T03:49:44.660Z,84.35
2023-02-05T03:53:32.164Z,84.33
2023-02-05T04:08:50.790Z,84.46
2023-02-05T04:12:39.776Z,84.49
2023-02-05T04:16:30.728Z,84.41
2023-02-05T04:24:17.835Z,84.53
2023-02-05T04:28:06.751Z,84.52
2023-02-05T04:31:56.293Z,84.50
2023-02-05T04:35:45.593Z,84.47
2023-02-05T04:39:35.229Z,84.41
2023-02-05T04:43:24.205Z,84.36
2023-02-05T04:47:13.328Z,84.29
2023-02-05T04:51:02.461Z,84.35
2023-02-05T04:54:51.902Z,84.37
2023-02-05T04:58:40.849Z,84.60
2023-02-05T05:02:30.274Z,84.61
2023-02-05T05:06:19.530Z,84.69
2023-02-05T05:10:08.905Z,84.64
2023-02-05T05:13:57.900Z,84.46
2023-02-05T05:17:47.384Z,84.39
2023-02-05T05:21:36.425Z,84.24
2023-02-05T05:25:25.532Z,84.25
2023-02-05T05:29:14.674Z,84.25
2023-02-05T05:33:04.083Z,84.27
2023-02-05T05:36:53.239Z,84.27
2023-02-05T05:40:41.220Z,84.35
2023-02-05T05:44:30.365Z,84.38
2023-02-05T05:48:19.545Z,84.32
2023-02-05T05:51:59.557Z,84.16
2023-02-05T05:55:48.868Z,84.10
2023-02-05T06:00:07.332Z,84.11
2023-02-05T06:03:56.259Z,84.07
2023-02-05T06:07:45.364Z,84.17
2023-02-05T06:11:34.341Z,84.08
2023-02-05T06:15:16.003Z,83.99
2023-02-05T06:19:05.371Z,83.88
2023-02-05T06:22:54.391Z,83.76
2023-02-05T06:26:26.369Z,83.70
2023-02-05T06:30:15.203Z,83.62
2023-02-05T06:34:06.229Z,83.58
2023-02-05T06:37:55.243Z,83.48
2023-02-05T06:41:44.726Z,83.57
2023-02-05T06:45:33.977Z,84.03
2023-02-05T06:49:23.468Z,84.29
2023-02-05T06:53:12.398Z,84.34
2023-02-05T06:57:01.377Z,84.42
2023-02-05T07:00:50.771Z,84.45
2023-02-05T07:04:40.135Z,84.49
2023-02-05T07:08:57.529Z,84.52
2023-02-05T07:12:46.862Z,84.69
2023-02-05T07:16:38.663Z,84.77
2023-02-05T07:20:28.695Z,84.96
2023-02-05T07:24:17.857Z,85.02
2023-02-05T07:28:07.844Z,85.05
2023-02-05T07:43:47.665Z,84.95
2023-02-05T07:47:36.704Z,84.84
2023-02-05T07:51:26.777Z,84.84
2023-02-05T07:55:15.989Z,84.74
2023-02-05T07:59:05.080Z,84.39
2023-02-05T08:02:54.404Z,83.83
2023-02-05T08:06:46.472Z,83.36
2023-02-05T08:10:35.625Z,83.31
2023-02-05T08:14:24.579Z,83.66
2023-02-05T08:18:13.753Z,83.83
2023-02-05T08:22:02.198Z,83.74
2023-02-05T08:25:51.174Z,83.76
2023-02-05T08:29:38.968Z,83.68
2023-02-05T08:33:28.315Z,83.57
2023-02-05T08:37:17.360Z,83.63
2023-02-05T08:41:06.563Z,83.75
2023-02-05T08:44:54.492Z,83.77
2023-02-05T08:48:43.381Z,83.82
2023-02-05T08:52:33.321Z,83.90
2023-02-05T08:56:21.565Z,83.91
2023-02-05T09:00:10.583Z,83.85
2023-02-05T09:16:06.856Z,82.22
2023-02-05T09:19:54.506Z,82.24
2023-02-05T09:23:42.089Z,81.87
2023-02-05T09:27:29.285Z,81.94
2023-02-05T09:31:18.690Z,81.74
2023-02-05T09:35:07.826Z,81.48
2023-02-05T09:39:04.955Z,80.64
2023-02-05T09:51:18.534Z,80.56
2023-02-05T09:59:08.346Z,79.78
2023-02-05T10:03:03.384Z,79.82
2023-02-05T10:06:52.830Z,79.51
2023-02-05T10:23:16.972Z,78.56
2023-02-05T10:27:12.079Z,78.76
2023-02-05T10:31:32.136Z,78.52
2023-02-05T10:35:33.663Z,78.45
2023-02-05T10:39:26.383Z,78.17
